sensor_id;sensor_type;location;lat;lon;timestamp;P1;durP1;ratioP1;P2;durP2;ratioP2
67162;SDS011;54092;53.088;8.850;2023-08-31T00:02:05;10.00;;;4.70;;
67162;SDS011;54092;53.088;8.850;2023-08-31T00:04:31;10.73;;;4.57;;
67162;SDS011;54092;53.088;8.850;2023-08-31T00:06:56;9.23;;;4.57;;
67162;SDS011;54092;53.088;8.850;2023-08-31T00:09:22;12.00;;;4.75;;
67162;SDS011;54092;53.088;8.850;2023-08-31T00:11:49;11.50;;;4.40;;
67162;SDS011;54092;53.088;8.850;2023-08-31T00:14:15;9.43;;;4.60;;
67162;SDS011;54092;53.088;8.850;2023-08-31T00:16:40;10.45;;;4.53;;
67162;SDS011;54092;53.088;8.850;2023-08-31T00:19:06;7.85;;;4.38;;
67162;SDS011;54092;53.088;8.850;2023-08-31T00:21:31;8.65;;;4.38;;
67162;SDS011;54092;53.088;8.850;2023-08-31T00:23:58;9.82;;;4.25;;
67162;SDS011;54092;53.088;8.850;2023-08-31T00:26:24;7.82;;;4.35;;
67162;SDS011;54092;53.088;8.850;2023-08-31T00:28:49;10.70;;;4.55;;
67162;SDS011;54092;53.088;8.850;2023-08-31T00:31:15;8.73;;;4.13;;
67162;SDS011;54092;53.088;8.850;2023-08-31T00:33:41;9.88;;;4.20;;
67162;SDS011;54092;53.088;8.850;2023-08-31T00:36:06;9.63;;;4.32;;
67162;SDS011;54092;53.088;8.850;2023-08-31T00:38:32;7.60;;;4.03;;
67162;SDS011;54092;53.088;8.850;2023-08-31T00:40:58;9.55;;;4.10;;
67162;SDS011;54092;53.088;8.850;2023-08-31T00:43:24;10.32;;;4.47;;
67162;SDS011;54092;53.088;8.850;2023-08-31T00:45:50;6.55;;;3.90;;
67162;SDS011;54092;53.088;8.850;2023-08-31T00:48:21;8.25;;;4.22;;
67162;SDS011;54092;53.088;8.850;2023-08-31T00:50:47;8.52;;;3.97;;
67162;SDS011;54092;53.088;8.850;2023-08-31T00:53:13;10.38;;;3.95;;
67162;SDS011;54092;53.088;8.850;2023-08-31T00:55:40;8.80;;;3.97;;
67162;SDS011;54092;53.088;8.850;2023-08-31T00:58:06;8.20;;;3.78;;
67162;SDS011;54092;53.088;8.850;2023-08-31T01:01:18;7.50;;;4.00;;
67162;SDS011;54092;53.088;8.850;2023-08-31T01:06:04;7.93;;;3.72;;
67162;SDS011;54092;53.088;8.850;2023-08-31T01:11:31;11.60;;;3.92;;
67162;SDS011;54092;53.088;8.850;2023-08-31T01:14:11;8.80;;;4.35;;
67162;SDS011;54092;53.088;8.850;2023-08-31T01:16:43;7.88;;;3.80;;
67162;SDS011;54092;53.088;8.850;2023-08-31T01:19:24;6.47;;;3.85;;
67162;SDS011;54092;53.088;8.850;2023-08-31T01:22:09;9.55;;;3.83;;
67162;SDS011;54092;53.088;8.850;2023-08-31T01:24:39;8.90;;;3.72;;
67162;SDS011;54092;53.088;8.850;2023-08-31T01:27:06;9.38;;;3.90;;
67162;SDS011;54092;53.088;8.850;2023-08-31T01:29:32;8.00;;;3.55;;
67162;SDS011;54092;53.088;8.850;2023-08-31T01:31:58;9.07;;;3.55;;
67162;SDS011;54092;53.088;8.850;2023-08-31T01:34:23;7.55;;;3.63;;
67162;SDS011;54092;53.088;8.850;2023-08-31T01:36:51;7.72;;;3.50;;
67162;SDS011;54092;53.088;8.850;2023-08-31T01:39:23;9.30;;;3.83;;
67162;SDS011;54092;53.088;8.850;2023-08-31T01:41:59;7.32;;;3.67;;
67162;SDS011;54092;53.088;8.850;2023-08-31T01:44:28;8.23;;;3.80;;
67162;SDS011;54092;53.088;8.850;2023-08-31T01:49:28;7.82;;;3.75;;
67162;SDS011;54092;53.088;8.850;2023-08-31T01:51:53;7.45;;;3.63;;
67162;SDS011;54092;53.088;8.850;2023-08-31T01:54:19;6.90;;;3.63;;
67162;SDS011;54092;53.088;8.850;2023-08-31T01:56:44;6.13;;;3.83;;
67162;SDS011;54092;53.088;8.850;2023-08-31T01:59:10;9.40;;;3.83;;
67162;SDS011;54092;53.088;8.850;2023-08-31T02:01:35;8.50;;;3.95;;
67162;SDS011;54092;53.088;8.850;2023-08-31T02:04:01;10.00;;;3.88;;
67162;SDS011;54092;53.088;8.850;2023-08-31T02:06:26;8.30;;;4.00;;
67162;SDS011;54092;53.088;8.850;2023-08-31T02:08:52;11.90;;;3.95;;
67162;SDS011;54092;53.088;8.850;2023-08-31T02:11:18;8.25;;;3.80;;
67162;SDS011;54092;53.088;8.850;2023-08-31T02:13:43;10.90;;;4.30;;
67162;SDS011;54092;53.088;8.850;2023-08-31T02:16:09;8.20;;;3.92;;
67162;SDS011;54092;53.088;8.850;2023-08-31T02:18:34;10.18;;;4.53;;
67162;SDS011;54092;53.088;8.850;2023-08-31T02:21:00;9.25;;;4.57;;
67162;SDS011;54092;53.088;8.850;2023-08-31T02:23:25;11.27;;;4.40;;
67162;SDS011;54092;53.088;8.850;2023-08-31T02:25:51;9.38;;;4.82;;
67162;SDS011;54092;53.088;8.850;2023-08-31T02:28:16;9.95;;;4.40;;
67162;SDS011;54092;53.088;8.850;2023-08-31T02:30:45;10.57;;;4.50;;
67162;SDS011;54092;53.088;8.850;2023-08-31T02:33:11;10.05;;;4.60;;
67162;SDS011;54092;53.088;8.850;2023-08-31T02:35:36;10.57;;;4.60;;
67162;SDS011;54092;53.088;8.850;2023-08-31T02:38:02;7.50;;;4.30;;
67162;SDS011;54092;53.088;8.850;2023-08-31T02:40:28;11.75;;;4.60;;
67162;SDS011;54092;53.088;8.850;2023-08-31T02:42:53;10.13;;;4.35;;
67162;SDS011;54092;53.088;8.850;2023-08-31T02:45:19;11.52;;;4.57;;
67162;SDS011;54092;53.088;8.850;2023-08-31T02:47:44;8.75;;;4.78;;
67162;SDS011;54092;53.088;8.850;2023-08-31T02:50:10;12.98;;;5.15;;
67162;SDS011;54092;53.088;8.850;2023-08-31T02:52:35;11.43;;;4.80;;
67162;SDS011;54092;53.088;8.850;2023-08-31T02:55:01;11.80;;;5.13;;
67162;SDS011;54092;53.088;8.850;2023-08-31T02:57:27;9.77;;;4.93;;
67162;SDS011;54092;53.088;8.850;2023-08-31T02:59:52;11.20;;;4.80;;
67162;SDS011;54092;53.088;8.850;2023-08-31T03:02:18;9.60;;;4.97;;
67162;SDS011;54092;53.088;8.850;2023-08-31T03:04:43;12.77;;;5.10;;
67162;SDS011;54092;53.088;8.850;2023-08-31T03:07:09;13.52;;;5.65;;
67162;SDS011;54092;53.088;8.850;2023-08-31T03:09:38;10.85;;;5.43;;
67162;SDS011;54092;53.088;8.850;2023-08-31T03:12:04;14.05;;;5.55;;
67162;SDS011;54092;53.088;8.850;2023-08-31T03:14:30;16.02;;;5.70;;
67162;SDS011;54092;53.088;8.850;2023-08-31T03:16:55;11.70;;;4.90;;
67162;SDS011;54092;53.088;8.850;2023-08-31T03:19:21;9.27;;;5.03;;
67162;SDS011;54092;53.088;8.850;2023-08-31T03:21:47;11.00;;;5.45;;
67162;SDS011;54092;53.088;8.850;2023-08-31T03:24:12;11.02;;;5.28;;
67162;SDS011;54092;53.088;8.850;2023-08-31T03:26:38;17.20;;;5.55;;
67162;SDS011;54092;53.088;8.850;2023-08-31T03:29:03;11.70;;;5.47;;
67162;SDS011;54092;53.088;8.850;2023-08-31T03:31:29;13.18;;;5.95;;
67162;SDS011;54092;53.088;8.850;2023-08-31T03:33:56;10.88;;;5.60;;
67162;SDS011;54092;53.088;8.850;2023-08-31T03:36:21;8.57;;;5.00;;
67162;SDS011;54092;53.088;8.850;2023-08-31T03:38:47;13.23;;;5.38;;
67162;SDS011;54092;53.088;8.850;2023-08-31T03:41:12;13.15;;;5.32;;
67162;SDS011;54092;53.088;8.850;2023-08-31T03:43:38;14.15;;;5.90;;
67162;SDS011;54092;53.088;8.850;2023-08-31T03:46:03;11.27;;;5.45;;
67162;SDS011;54092;53.088;8.850;2023-08-31T03:48:29;10.10;;;5.63;;
67162;SDS011;54092;53.088;8.850;2023-08-31T03:50:55;13.45;;;5.95;;
67162;SDS011;54092;53.088;8.850;2023-08-31T03:53:20;13.88;;;6.03;;
67162;SDS011;54092;53.088;8.850;2023-08-31T03:55:46;11.48;;;5.47;;
67162;SDS011;54092;53.088;8.850;2023-08-31T03:58:12;14.40;;;6.55;;
67162;SDS011;54092;53.088;8.850;2023-08-31T04:00:38;13.75;;;6.03;;
67162;SDS011;54092;53.088;8.850;2023-08-31T04:03:04;16.60;;;6.00;;
67162;SDS011;54092;53.088;8.850;2023-08-31T04:05:33;12.93;;;5.70;;
67162;SDS011;54092;53.088;8.850;2023-08-31T04:07:59;11.68;;;5.72;;
67162;SDS011;54092;53.088;8.850;2023-08-31T04:10:25;11.32;;;5.70;;
67162;SDS011;54092;53.088;8.850;2023-08-31T04:12:51;11.25;;;5.68;;
67162;SDS011;54092;53.088;8.850;2023-08-31T04:15:17;17.73;;;6.72;;
67162;SDS011;54092;53.088;8.850;2023-08-31T04:17:43;17.73;;;6.18;;
67162;SDS011;54092;53.088;8.850;2023-08-31T04:20:09;14.32;;;5.88;;
67162;SDS011;54092;53.088;8.850;2023-08-31T04:22:35;16.58;;;6.40;;
67162;SDS011;54092;53.088;8.850;2023-08-31T04:25:01;12.13;;;5.93;;
67162;SDS011;54092;53.088;8.850;2023-08-31T04:27:27;14.13;;;6.05;;
67162;SDS011;54092;53.088;8.850;2023-08-31T04:29:53;12.05;;;6.18;;
67162;SDS011;54092;53.088;8.850;2023-08-31T04:32:18;13.23;;;5.63;;
67162;SDS011;54092;53.088;8.850;2023-08-31T04:34:44;14.93;;;6.32;;
67162;SDS011;54092;53.088;8.850;2023-08-31T04:37:09;17.83;;;5.78;;
67162;SDS011;54092;53.088;8.850;2023-08-31T04:39:35;17.85;;;6.22;;
67162;SDS011;54092;53.088;8.850;2023-08-31T04:42:00;12.57;;;6.00;;
67162;SDS011;54092;53.088;8.850;2023-08-31T04:44:26;14.98;;;6.88;;
67162;SDS011;54092;53.088;8.850;2023-08-31T04:46:51;16.70;;;7.35;;
67162;SDS011;54092;53.088;8.850;2023-08-31T04:49:17;12.98;;;5.55;;
67162;SDS011;54092;53.088;8.850;2023-08-31T04:51:43;18.83;;;6.32;;
67162;SDS011;54092;53.088;8.850;2023-08-31T04:54:09;14.07;;;6.32;;
67162;SDS011;54092;53.088;8.850;2023-08-31T04:56:35;12.57;;;6.57;;
67162;SDS011;54092;53.088;8.850;2023-08-31T04:59:01;11.38;;;5.70;;
67162;SDS011;54092;53.088;8.850;2023-08-31T05:01:29;13.18;;;5.70;;
67162;SDS011;54092;53.088;8.850;2023-08-31T05:03:55;13.00;;;6.80;;
67162;SDS011;54092;53.088;8.850;2023-08-31T05:06:21;13.43;;;6.95;;
67162;SDS011;54092;53.088;8.850;2023-08-31T05:08:47;13.10;;;6.47;;
67162;SDS011;54092;53.088;8.850;2023-08-31T05:11:13;13.65;;;6.30;;
67162;SDS011;54092;53.088;8.850;2023-08-31T05:13:39;13.82;;;6.97;;
67162;SDS011;54092;53.088;8.850;2023-08-31T05:16:07;13.95;;;6.50;;
67162;SDS011;54092;53.088;8.850;2023-08-31T05:18:33;13.60;;;6.35;;
67162;SDS011;54092;53.088;8.850;2023-08-31T05:20:58;16.40;;;5.97;;
67162;SDS011;54092;53.088;8.850;2023-08-31T05:23:24;14.77;;;7.03;;
67162;SDS011;54092;53.088;8.850;2023-08-31T05:25:49;13.60;;;6.28;;
67162;SDS011;54092;53.088;8.850;2023-08-31T05:28:15;14.18;;;6.53;;
67162;SDS011;54092;53.088;8.850;2023-08-31T05:30:50;14.82;;;7.07;;
67162;SDS011;54092;53.088;8.850;2023-08-31T05:33:17;14.55;;;6.60;;
67162;SDS011;54092;53.088;8.850;2023-08-31T05:35:43;17.65;;;6.72;;
67162;SDS011;54092;53.088;8.850;2023-08-31T05:38:08;14.07;;;7.38;;
67162;SDS011;54092;53.088;8.850;2023-08-31T05:40:34;13.10;;;6.88;;
67162;SDS011;54092;53.088;8.850;2023-08-31T05:42:59;13.98;;;6.40;;
67162;SDS011;54092;53.088;8.850;2023-08-31T05:45:25;12.68;;;6.43;;
67162;SDS011;54092;53.088;8.850;2023-08-31T05:47:50;14.27;;;6.43;;
67162;SDS011;54092;53.088;8.850;2023-08-31T05:50:16;12.68;;;6.20;;
67162;SDS011;54092;53.088;8.850;2023-08-31T05:52:41;13.88;;;6.25;;
67162;SDS011;54092;53.088;8.850;2023-08-31T05:55:09;13.25;;;6.63;;
67162;SDS011;54092;53.088;8.850;2023-08-31T05:57:35;13.88;;;7.18;;
67162;SDS011;54092;53.088;8.850;2023-08-31T06:00:02;16.60;;;6.80;;
67162;SDS011;54092;53.088;8.850;2023-08-31T06:02:29;15.38;;;6.72;;
67162;SDS011;54092;53.088;8.850;2023-08-31T06:04:55;15.75;;;6.65;;
67162;SDS011;54092;53.088;8.850;2023-08-31T06:07:21;13.07;;;6.82;;
67162;SDS011;54092;53.088;8.850;2023-08-31T06:09:46;11.13;;;6.22;;
67162;SDS011;54092;53.088;8.850;2023-08-31T06:12:13;15.55;;;7.80;;
67162;SDS011;54092;53.088;8.850;2023-08-31T06:14:39;14.88;;;7.22;;
67162;SDS011;54092;53.088;8.850;2023-08-31T06:17:04;16.60;;;7.18;;
67162;SDS011;54092;53.088;8.850;2023-08-31T06:19:30;12.85;;;6.50;;
67162;SDS011;54092;53.088;8.850;2023-08-31T06:21:55;11.90;;;6.93;;
67162;SDS011;54092;53.088;8.850;2023-08-31T06:24:21;13.73;;;6.78;;
67162;SDS011;54092;53.088;8.850;2023-08-31T06:26:46;13.65;;;7.22;;
67162;SDS011;54092;53.088;8.850;2023-08-31T06:29:12;13.07;;;6.50;;
67162;SDS011;54092;53.088;8.850;2023-08-31T06:31:37;15.05;;;7.00;;
67162;SDS011;54092;53.088;8.850;2023-08-31T06:34:03;13.35;;;6.57;;
67162;SDS011;54092;53.088;8.850;2023-08-31T06:36:31;12.68;;;6.97;;
67162;SDS011;54092;53.088;8.850;2023-08-31T06:38:57;17.25;;;8.00;;
67162;SDS011;54092;53.088;8.850;2023-08-31T06:41:22;11.57;;;6.95;;
67162;SDS011;54092;53.088;8.850;2023-08-31T06:43:48;17.73;;;7.35;;
67162;SDS011;54092;53.088;8.850;2023-08-31T06:46:14;13.75;;;6.95;;
67162;SDS011;54092;53.088;8.850;2023-08-31T06:48:39;15.55;;;7.60;;
67162;SDS011;54092;53.088;8.850;2023-08-31T06:51:05;13.80;;;7.53;;
67162;SDS011;54092;53.088;8.850;2023-08-31T06:53:30;11.60;;;6.75;;
67162;SDS011;54092;53.088;8.850;2023-08-31T06:55:59;14.60;;;7.40;;
67162;SDS011;54092;53.088;8.850;2023-08-31T06:58:24;13.70;;;6.53;;
67162;SDS011;54092;53.088;8.850;2023-08-31T07:00:50;16.83;;;6.68;;
67162;SDS011;54092;53.088;8.850;2023-08-31T07:03:15;15.18;;;6.63;;
67162;SDS011;54092;53.088;8.850;2023-08-31T07:05:41;12.48;;;6.75;;
67162;SDS011;54092;53.088;8.850;2023-08-31T07:08:08;9.73;;;5.82;;
67162;SDS011;54092;53.088;8.850;2023-08-31T07:10:34;11.68;;;6.22;;
67162;SDS011;54092;53.088;8.850;2023-08-31T07:13:03;16.08;;;6.55;;
67162;SDS011;54092;53.088;8.850;2023-08-31T07:15:29;11.85;;;6.38;;
67162;SDS011;54092;53.088;8.850;2023-08-31T07:17:55;13.38;;;6.90;;
67162;SDS011;54092;53.088;8.850;2023-08-31T07:20:21;11.57;;;6.63;;
67162;SDS011;54092;53.088;8.850;2023-08-31T07:22:46;23.75;;;9.95;;
67162;SDS011;54092;53.088;8.850;2023-08-31T07:25:12;15.55;;;7.40;;
67162;SDS011;54092;53.088;8.850;2023-08-31T07:27:37;15.95;;;8.60;;
67162;SDS011;54092;53.088;8.850;2023-08-31T07:30:03;13.93;;;8.35;;
67162;SDS011;54092;53.088;8.850;2023-08-31T07:32:33;14.52;;;8.10;;
67162;SDS011;54092;53.088;8.850;2023-08-31T07:34:59;16.05;;;7.90;;
67162;SDS011;54092;53.088;8.850;2023-08-31T07:37:24;13.60;;;7.93;;
67162;SDS011;54092;53.088;8.850;2023-08-31T07:39:50;13.88;;;8.27;;
67162;SDS011;54092;53.088;8.850;2023-08-31T07:42:16;16.52;;;7.97;;
67162;SDS011;54092;53.088;8.850;2023-08-31T07:44:41;14.70;;;8.07;;
67162;SDS011;54092;53.088;8.850;2023-08-31T07:47:09;16.45;;;7.47;;
67162;SDS011;54092;53.088;8.850;2023-08-31T07:49:34;14.95;;;7.57;;
67162;SDS011;54092;53.088;8.850;2023-08-31T07:52:00;13.90;;;7.72;;
67162;SDS011;54092;53.088;8.850;2023-08-31T07:54:26;16.67;;;8.32;;
67162;SDS011;54092;53.088;8.850;2023-08-31T07:56:51;12.52;;;7.82;;
67162;SDS011;54092;53.088;8.850;2023-08-31T07:59:17;16.13;;;8.27;;
67162;SDS011;54092;53.088;8.850;2023-08-31T08:01:43;14.75;;;8.70;;
67162;SDS011;54092;53.088;8.850;2023-08-31T08:04:10;14.77;;;8.32;;
67162;SDS011;54092;53.088;8.850;2023-08-31T08:06:36;15.15;;;8.88;;
67162;SDS011;54092;53.088;8.850;2023-08-31T08:09:02;13.43;;;7.65;;
67162;SDS011;54092;53.088;8.850;2023-08-31T08:11:27;16.15;;;9.10;;
67162;SDS011;54092;53.088;8.850;2023-08-31T08:13:53;17.67;;;9.10;;
67162;SDS011;54092;53.088;8.850;2023-08-31T08:16:18;14.23;;;8.63;;
67162;SDS011;54092;53.088;8.850;2023-08-31T08:18:44;16.75;;;9.07;;
67162;SDS011;54092;53.088;8.850;2023-08-31T08:21:09;16.70;;;8.65;;
67162;SDS011;54092;53.088;8.850;2023-08-31T08:23:35;16.27;;;9.55;;
67162;SDS011;54092;53.088;8.850;2023-08-31T08:26:00;16.13;;;9.10;;
67162;SDS011;54092;53.088;8.850;2023-08-31T08:28:26;15.07;;;9.60;;
67162;SDS011;54092;53.088;8.850;2023-08-31T08:30:51;17.85;;;9.25;;
67162;SDS011;54092;53.088;8.850;2023-08-31T08:33:17;19.42;;;9.65;;
67162;SDS011;54092;53.088;8.850;2023-08-31T08:35:43;16.65;;;10.10;;
67162;SDS011;54092;53.088;8.850;2023-08-31T08:38:08;14.75;;;9.75;;
67162;SDS011;54092;53.088;8.850;2023-08-31T08:40:34;15.13;;;9.45;;
67162;SDS011;54092;53.088;8.850;2023-08-31T08:43:00;15.23;;;9.30;;
67162;SDS011;54092;53.088;8.850;2023-08-31T08:45:30;16.75;;;8.75;;
67162;SDS011;54092;53.088;8.850;2023-08-31T08:48:02;19.27;;;9.70;;
67162;SDS011;54092;53.088;8.850;2023-08-31T08:50:30;19.52;;;9.90;;
67162;SDS011;54092;53.088;8.850;2023-08-31T08:52:58;16.20;;;10.18;;
67162;SDS011;54092;53.088;8.850;2023-08-31T08:55:24;18.13;;;10.05;;
67162;SDS011;54092;53.088;8.850;2023-08-31T08:57:50;15.73;;;9.00;;
67162;SDS011;54092;53.088;8.850;2023-08-31T09:00:16;17.88;;;9.77;;
67162;SDS011;54092;53.088;8.850;2023-08-31T09:02:41;18.27;;;9.50;;
67162;SDS011;54092;53.088;8.850;2023-08-31T09:05:07;14.95;;;8.98;;
67162;SDS011;54092;53.088;8.850;2023-08-31T09:07:36;15.85;;;8.85;;
67162;SDS011;54092;53.088;8.850;2023-08-31T09:10:02;14.10;;;8.82;;
67162;SDS011;54092;53.088;8.850;2023-08-31T09:12:28;14.45;;;8.80;;
67162;SDS011;54092;53.088;8.850;2023-08-31T09:14:57;14.23;;;8.57;;
67162;SDS011;54092;53.088;8.850;2023-08-31T09:17:24;14.68;;;9.63;;
67162;SDS011;54092;53.088;8.850;2023-08-31T09:19:59;16.20;;;9.90;;
67162;SDS011;54092;53.088;8.850;2023-08-31T09:22:25;13.95;;;9.07;;
67162;SDS011;54092;53.088;8.850;2023-08-31T09:24:51;16.92;;;9.90;;
67162;SDS011;54092;53.088;8.850;2023-08-31T09:27:17;15.50;;;8.77;;
67162;SDS011;54092;53.088;8.850;2023-08-31T09:29:45;16.13;;;9.25;;
67162;SDS011;54092;53.088;8.850;2023-08-31T09:32:18;13.13;;;8.65;;
67162;SDS011;54092;53.088;8.850;2023-08-31T09:34:44;15.15;;;9.18;;
67162;SDS011;54092;53.088;8.850;2023-08-31T09:37:10;16.38;;;8.27;;
67162;SDS011;54092;53.088;8.850;2023-08-31T09:39:36;12.48;;;7.35;;
67162;SDS011;54092;53.088;8.850;2023-08-31T09:42:03;10.18;;;6.18;;
67162;SDS011;54092;53.088;8.850;2023-08-31T09:44:29;11.75;;;5.22;;
67162;SDS011;54092;53.088;8.850;2023-08-31T09:46:55;8.27;;;4.40;;
67162;SDS011;54092;53.088;8.850;2023-08-31T09:49:21;8.65;;;3.88;;
67162;SDS011;54092;53.088;8.850;2023-08-31T09:51:48;7.57;;;3.65;;
67162;SDS011;54092;53.088;8.850;2023-08-31T09:54:20;10.88;;;3.30;;
67162;SDS011;54092;53.088;8.850;2023-08-31T09:56:51;5.82;;;3.13;;
67162;SDS011;54092;53.088;8.850;2023-08-31T10:02:14;7.15;;;3.70;;
67162;SDS011;54092;53.088;8.850;2023-08-31T10:04:41;4.88;;;2.80;;
67162;SDS011;54092;53.088;8.850;2023-08-31T10:07:08;6.10;;;2.90;;
67162;SDS011;54092;53.088;8.850;2023-08-31T10:09:35;4.90;;;2.42;;
67162;SDS011;54092;53.088;8.850;2023-08-31T10:12:02;3.83;;;2.40;;
67162;SDS011;54092;53.088;8.850;2023-08-31T10:14:29;5.38;;;2.45;;
67162;SDS011;54092;53.088;8.850;2023-08-31T10:16:55;5.03;;;2.38;;
67162;SDS011;54092;53.088;8.850;2023-08-31T10:19:22;5.07;;;2.10;;
67162;SDS011;54092;53.088;8.850;2023-08-31T10:21:48;5.75;;;2.17;;
67162;SDS011;54092;53.088;8.850;2023-08-31T10:24:14;3.30;;;2.00;;
67162;SDS011;54092;53.088;8.850;2023-08-31T10:26:40;4.20;;;2.10;;
67162;SDS011;54092;53.088;8.850;2023-08-31T10:29:05;5.15;;;2.10;;
67162;SDS011;54092;53.088;8.850;2023-08-31T10:31:34;6.18;;;2.30;;
67162;SDS011;54092;53.088;8.850;2023-08-31T10:36:38;5.72;;;1.85;;
67162;SDS011;54092;53.088;8.850;2023-08-31T10:39:15;6.00;;;1.90;;
67162;SDS011;54092;53.088;8.850;2023-08-31T10:41:42;2.97;;;1.67;;
67162;SDS011;54092;53.088;8.850;2023-08-31T10:44:23;3.78;;;1.70;;
67162;SDS011;54092;53.088;8.850;2023-08-31T10:46:50;4.35;;;1.60;;
67162;SDS011;54092;53.088;8.850;2023-08-31T10:49:17;3.17;;;1.58;;
67162;SDS011;54092;53.088;8.850;2023-08-31T10:51:45;6.78;;;1.77;;
67162;SDS011;54092;53.088;8.850;2023-08-31T10:54:19;3.13;;;1.50;;
67162;SDS011;54092;53.088;8.850;2023-08-31T10:56:52;3.92;;;1.95;;
67162;SDS011;54092;53.088;8.850;2023-08-31T11:05:18;4.85;;;1.50;;
67162;SDS011;54092;53.088;8.850;2023-08-31T11:07:44;5.30;;;1.85;;
67162;SDS011;54092;53.088;8.850;2023-08-31T11:12:38;4.05;;;1.88;;
67162;SDS011;54092;53.088;8.850;2023-08-31T11:15:04;4.70;;;1.80;;
67162;SDS011;54092;53.088;8.850;2023-08-31T11:17:30;3.58;;;1.90;;
67162;SDS011;54092;53.088;8.850;2023-08-31T11:19:57;5.30;;;1.73;;
67162;SDS011;54092;53.088;8.850;2023-08-31T11:22:24;3.70;;;1.60;;
67162;SDS011;54092;53.088;8.850;2023-08-31T11:24:50;3.15;;;1.45;;
67162;SDS011;54092;53.088;8.850;2023-08-31T11:27:18;3.47;;;1.50;;
67162;SDS011;54092;53.088;8.850;2023-08-31T11:29:45;2.97;;;1.50;;
67162;SDS011;54092;53.088;8.850;2023-08-31T11:32:11;2.97;;;1.50;;
67162;SDS011;54092;53.088;8.850;2023-08-31T11:34:40;4.40;;;1.60;;
67162;SDS011;54092;53.088;8.850;2023-08-31T11:37:13;2.30;;;1.50;;
67162;SDS011;54092;53.088;8.850;2023-08-31T11:39:50;3.58;;;1.60;;
67162;SDS011;54092;53.088;8.850;2023-08-31T11:42:17;5.50;;;2.30;;
67162;SDS011;54092;53.088;8.850;2023-08-31T11:44:45;5.30;;;1.80;;
67162;SDS011;54092;53.088;8.850;2023-08-31T11:47:12;3.70;;;1.80;;
67162;SDS011;54092;53.088;8.850;2023-08-31T11:49:39;3.45;;;1.60;;
67162;SDS011;54092;53.088;8.850;2023-08-31T11:52:05;5.10;;;1.70;;
67162;SDS011;54092;53.088;8.850;2023-08-31T11:54:31;3.50;;;1.90;;
67162;SDS011;54092;53.088;8.850;2023-08-31T11:56:57;3.10;;;1.80;;
67162;SDS011;54092;53.088;8.850;2023-08-31T11:59:22;3.20;;;1.65;;
67162;SDS011;54092;53.088;8.850;2023-08-31T12:01:49;5.60;;;1.50;;
67162;SDS011;54092;53.088;8.850;2023-08-31T12:04:16;2.97;;;1.58;;
67162;SDS011;54092;53.088;8.850;2023-08-31T12:09:25;4.35;;;1.42;;
67162;SDS011;54092;53.088;8.850;2023-08-31T12:11:53;2.47;;;1.38;;
67162;SDS011;54092;53.088;8.850;2023-08-31T12:14:27;2.30;;;1.20;;
67162;SDS011;54092;53.088;8.850;2023-08-31T12:17:00;3.28;;;1.48;;
67162;SDS011;54092;53.088;8.850;2023-08-31T12:19:28;8.00;;;1.80;;
67162;SDS011;54092;53.088;8.850;2023-08-31T12:21:54;4.65;;;1.42;;
67162;SDS011;54092;53.088;8.850;2023-08-31T12:24:20;3.33;;;1.45;;
67162;SDS011;54092;53.088;8.850;2023-08-31T12:26:47;2.72;;;1.40;;
67162;SDS011;54092;53.088;8.850;2023-08-31T12:29:12;3.92;;;1.70;;
67162;SDS011;54092;53.088;8.850;2023-08-31T12:31:38;3.05;;;1.58;;
67162;SDS011;54092;53.088;8.850;2023-08-31T12:34:04;2.28;;;1.50;;
67162;SDS011;54092;53.088;8.850;2023-08-31T12:36:31;4.88;;;2.08;;
67162;SDS011;54092;53.088;8.850;2023-08-31T12:39:02;4.20;;;1.95;;
67162;SDS011;54092;53.088;8.850;2023-08-31T12:41:31;2.92;;;1.58;;
67162;SDS011;54092;53.088;8.850;2023-08-31T12:43:57;4.20;;;1.95;;
67162;SDS011;54092;53.088;8.850;2023-08-31T12:46:23;6.07;;;1.80;;
67162;SDS011;54092;53.088;8.850;2023-08-31T12:48:49;4.90;;;1.90;;
67162;SDS011;54092;53.088;8.850;2023-08-31T12:51:15;6.00;;;2.20;;
67162;SDS011;54092;53.088;8.850;2023-08-31T12:53:41;4.10;;;1.98;;
67162;SDS011;54092;53.088;8.850;2023-08-31T12:56:07;4.97;;;1.92;;
67162;SDS011;54092;53.088;8.850;2023-08-31T12:58:33;4.78;;;2.00;;
67162;SDS011;54092;53.088;8.850;2023-08-31T13:00:58;4.65;;;2.17;;
67162;SDS011;54092;53.088;8.850;2023-08-31T13:03:24;4.45;;;2.20;;
67162;SDS011;54092;53.088;8.850;2023-08-31T13:05:50;5.07;;;2.10;;
67162;SDS011;54092;53.088;8.850;2023-08-31T13:08:16;7.93;;;2.17;;
67162;SDS011;54092;53.088;8.850;2023-08-31T13:10:41;4.93;;;2.63;;
67162;SDS011;54092;53.088;8.850;2023-08-31T13:13:07;6.45;;;2.50;;
67162;SDS011;54092;53.088;8.850;2023-08-31T13:15:33;3.78;;;1.98;;
67162;SDS011;54092;53.088;8.850;2023-08-31T13:17:59;6.70;;;2.28;;
67162;SDS011;54092;53.088;8.850;2023-08-31T13:20:24;5.93;;;2.22;;
67162;SDS011;54092;53.088;8.850;2023-08-31T13:22:50;8.45;;;2.90;;
67162;SDS011;54092;53.088;8.850;2023-08-31T13:25:16;5.75;;;2.58;;
67162;SDS011;54092;53.088;8.850;2023-08-31T13:27:42;6.00;;;2.60;;
67162;SDS011;54092;53.088;8.850;2023-08-31T13:30:09;4.60;;;2.35;;
67162;SDS011;54092;53.088;8.850;2023-08-31T13:32:37;7.05;;;2.80;;
67162;SDS011;54092;53.088;8.850;2023-08-31T13:35:03;6.03;;;2.60;;
67162;SDS011;54092;53.088;8.850;2023-08-31T13:39:58;6.13;;;2.20;;
67162;SDS011;54092;53.088;8.850;2023-08-31T13:42:25;4.32;;;2.10;;
67162;SDS011;54092;53.088;8.850;2023-08-31T13:44:50;5.18;;;2.00;;
67162;SDS011;54092;53.088;8.850;2023-08-31T13:47:16;6.45;;;2.53;;
67162;SDS011;54092;53.088;8.850;2023-08-31T13:49:42;5.35;;;2.00;;
67162;SDS011;54092;53.088;8.850;2023-08-31T13:52:07;5.03;;;2.10;;
67162;SDS011;54092;53.088;8.850;2023-08-31T13:54:34;10.48;;;2.83;;
67162;SDS011;54092;53.088;8.850;2023-08-31T13:57:00;3.90;;;1.95;;
67162;SDS011;54092;53.088;8.850;2023-08-31T13:59:26;5.88;;;2.17;;
67162;SDS011;54092;53.088;8.850;2023-08-31T14:01:54;7.47;;;2.50;;
67162;SDS011;54092;53.088;8.850;2023-08-31T14:04:19;4.60;;;2.15;;
67162;SDS011;54092;53.088;8.850;2023-08-31T14:06:47;5.38;;;2.00;;
67162;SDS011;54092;53.088;8.850;2023-08-31T14:09:13;5.35;;;2.50;;
67162;SDS011;54092;53.088;8.850;2023-08-31T14:11:39;6.38;;;1.80;;
67162;SDS011;54092;53.088;8.850;2023-08-31T14:14:05;3.17;;;1.85;;
67162;SDS011;54092;53.088;8.850;2023-08-31T14:16:34;3.88;;;2.20;;
67162;SDS011;54092;53.088;8.850;2023-08-31T14:19:01;5.45;;;2.15;;
67162;SDS011;54092;53.088;8.850;2023-08-31T14:21:27;4.40;;;2.35;;
67162;SDS011;54092;53.088;8.850;2023-08-31T14:23:53;6.88;;;2.13;;
67162;SDS011;54092;53.088;8.850;2023-08-31T14:26:20;8.88;;;2.83;;
67162;SDS011;54092;53.088;8.850;2023-08-31T14:28:50;7.18;;;2.60;;
67162;SDS011;54092;53.088;8.850;2023-08-31T14:31:16;5.32;;;2.55;;
67162;SDS011;54092;53.088;8.850;2023-08-31T14:33:42;7.03;;;2.28;;
67162;SDS011;54092;53.088;8.850;2023-08-31T14:36:08;7.90;;;3.67;;
67162;SDS011;54092;53.088;8.850;2023-08-31T14:38:34;6.68;;;2.90;;
67162;SDS011;54092;53.088;8.850;2023-08-31T14:41:00;2.80;;;1.60;;
67162;SDS011;54092;53.088;8.850;2023-08-31T14:43:25;4.95;;;2.10;;
67162;SDS011;54092;53.088;8.850;2023-08-31T14:45:51;4.43;;;1.90;;
67162;SDS011;54092;53.088;8.850;2023-08-31T14:48:16;3.25;;;1.83;;
67162;SDS011;54092;53.088;8.850;2023-08-31T14:50:42;3.92;;;1.73;;
67162;SDS011;54092;53.088;8.850;2023-08-31T14:53:08;2.95;;;1.65;;
67162;SDS011;54092;53.088;8.850;2023-08-31T14:55:34;3.88;;;1.63;;
67162;SDS011;54092;53.088;8.850;2023-08-31T14:57:59;4.25;;;1.80;;
67162;SDS011;54092;53.088;8.850;2023-08-31T15:00:25;4.90;;;2.00;;
67162;SDS011;54092;53.088;8.850;2023-08-31T15:02:51;6.93;;;2.20;;
67162;SDS011;54092;53.088;8.850;2023-08-31T15:05:16;3.10;;;1.80;;